Time,TemperatureF,DewpointF,PressureIn,WindDirection,WindDirectionDegrees,WindSpeedMPH,WindSpeedGustMPH,Humidity,HourlyPrecipIn,Conditions,Clouds,dailyrainin,SoftwareType,DateUTC
2013-10-19 00:00:00,53.0,44.0,-100.00,NE,45,1.0,-999.0,70,0.00,,,-99.99,,2013-10-19 07:00:00,
2013-10-19 00:42:00,53.0,44.0,-100.00,NE,45,1.0,-999.0,70,0.00,,,-99.99,,2013-10-19 07:42:00,
2013-10-19 00:52:00,53.0,44.0,-100.00,NE,45,1.0,-999.0,70,0.00,,,-99.99,,2013-10-19 07:52:00,
2013-10-19 01:00:00,52.0,43.0,-100.00,NE,50,1.0,-999.0,69,0.00,,,-99.99,,2013-10-19 08:00:00,
2013-10-19 01:42:00,52.0,43.0,-100.00,NE,50,1.0,-999.0,69,0.00,,,-99.99,,2013-10-19 08:42:00,
2013-10-19 01:52:00,52.0,43.0,-100.00,NE,50,1.0,-999.0,69,0.00,,,-99.99,,2013-10-19 08:52:00,
2013-10-19 02:00:00,51.0,41.0,-100.00,NE,50,1.0,-999.0,66,0.00,,,-99.99,,2013-10-19 09:00:00,
2013-10-19 02:43:00,51.0,41.0,-100.00,NE,50,1.0,-999.0,66,0.00,,,-99.99,,2013-10-19 09:43:00,
2013-10-19 02:54:00,51.0,41.0,-100.00,NE,50,1.0,-999.0,66,0.00,,,-99.99,,2013-10-19 09:54:00,
2013-10-19 03:00:00,49.0,39.0,-100.00,ENE,75,3.0,-999.0,68,0.00,,,-99.99,,2013-10-19 10:00:00,
2013-10-19 03:42:00,49.0,39.0,-100.00,ENE,75,3.0,-999.0,68,0.00,,,-99.99,,2013-10-19 10:42:00,
2013-10-19 03:53:00,49.0,39.0,-100.00,ENE,75,3.0,-999.0,68,0.00,,,-99.99,,2013-10-19 10:53:00,
2013-10-19 04:00:00,49.0,38.0,-100.00,NE,41,2.0,-999.0,64,0.00,,,-99.99,,2013-10-19 11:00:00,
2013-10-19 04:42:00,49.0,38.0,-100.00,NE,41,2.0,-999.0,64,0.00,,,-99.99,,2013-10-19 11:42:00,
2013-10-19 04:52:00,49.0,38.0,-100.00,NE,41,2.0,-999.0,64,0.00,,,-99.99,,2013-10-19 11:52:00,
2013-10-19 05:00:00,49.0,37.0,-100.00,ENE,58,2.0,-999.0,63,0.00,,,-99.99,,2013-10-19 12:00:00,
2013-10-19 05:43:00,49.0,37.0,-100.00,ENE,58,2.0,-999.0,63,0.00,,,-99.99,,2013-10-19 12:43:00,
2013-10-19 05:52:00,49.0,37.0,-100.00,ENE,58,2.0,-999.0,63,0.00,,,-99.99,,2013-10-19 12:52:00,
2013-10-19 06:00:00,48.0,36.0,-100.00,NE,43,1.0,-999.0,62,0.00,,,-99.99,,2013-10-19 13:00:00,
2013-10-19 06:42:00,48.0,36.0,-100.00,NE,43,1.0,-999.0,62,0.00,,,-99.99,,2013-10-19 13:42:00,
2013-10-19 06:52:00,48.0,36.0,-100.00,NE,43,1.0,-999.0,62,0.00,,,-99.99,,2013-10-19 13:52:00,
2013-10-19 07:00:00,48.0,36.0,-100.00,NE,35,1.0,-999.0,62,0.00,,,-99.99,,2013-10-19 14:00:00,
2013-10-19 07:42:00,48.0,36.0,-100.00,NE,35,1.0,-999.0,62,0.00,,,-99.99,,2013-10-19 14:42:00,
2013-10-19 07:52:00,48.0,36.0,-100.00,NE,35,1.0,-999.0,62,0.00,,,-99.99,,2013-10-19 14:52:00,
2013-10-19 08:00:00,47.0,37.0,-100.00,NE,51,2.0,-999.0,66,0.00,,,-99.99,,2013-10-19 15:00:00,
2013-10-19 08:44:00,47.0,37.0,-100.00,NE,51,2.0,-999.0,66,0.00,,,-99.99,,2013-10-19 15:44:00,
2013-10-19 08:55:00,47.0,37.0,-100.00,NE,51,2.0,-999.0,66,0.00,,,-99.99,,2013-10-19 15:55:00,
2013-10-19 09:00:00,59.0,40.0,-100.00,East,96,1.0,-999.0,48,0.00,,,-99.99,,2013-10-19 16:00:00,
2013-10-19 09:43:00,59.0,40.0,-100.00,East,96,1.0,-999.0,48,0.00,,,-99.99,,2013-10-19 16:43:00,
2013-10-19 09:53:00,59.0,40.0,-100.00,East,96,1.0,-999.0,48,0.00,,,-99.99,,2013-10-19 16:53:00,
2013-10-19 10:00:00,70.0,37.0,-100.00,SW,227,2.0,-999.0,30,0.00,,,-99.99,,2013-10-19 17:00:00,
2013-10-19 10:43:00,70.0,37.0,-100.00,SW,227,2.0,-999.0,30,0.00,,,-99.99,,2013-10-19 17:43:00,
2013-10-19 10:52:00,70.0,37.0,-100.00,SW,227,2.0,-999.0,30,0.00,,,-99.99,,2013-10-19 17:52:00,
2013-10-19 11:00:00,74.0,44.0,-100.00,WSW,239,3.0,-999.0,35,0.00,,,-99.99,,2013-10-19 18:00:00,
2013-10-19 11:42:00,74.0,44.0,-100.00,WSW,239,3.0,-999.0,35,0.00,,,-99.99,,2013-10-19 18:42:00,
2013-10-19 11:52:00,74.0,44.0,-100.00,WSW,239,3.0,-999.0,35,0.00,,,-99.99,,2013-10-19 18:52:00,
2013-10-19 12:00:00,78.0,50.0,-100.00,SSW,204,4.0,-999.0,37,0.00,,,-99.99,,2013-10-19 19:00:00,
2013-10-19 12:42:00,78.0,50.0,-100.00,SSW,204,4.0,-999.0,37,0.00,,,-99.99,,2013-10-19 19:42:00,
2013-10-19 12:52:00,78.0,50.0,-100.00,SSW,204,4.0,-999.0,37,0.00,,,-99.99,,2013-10-19 19:52:00,
2013-10-19 13:00:00,79.0,50.0,-100.00,West,266,2.0,-999.0,36,0.00,,,-99.99,,2013-10-19 20:00:00,
2013-10-19 13:42:00,79.0,50.0,-100.00,West,266,2.0,-999.0,36,0.00,,,-99.99,,2013-10-19 20:42:00,
2013-10-19 13:52:00,79.0,50.0,-100.00,West,266,2.0,-999.0,36,0.00,,,-99.99,,2013-10-19 20:52:00,
2013-10-19 14:00:00,78.0,52.0,-100.00,SW,218,6.0,-999.0,40,0.00,,,-99.99,,2013-10-19 21:00:00,
2013-10-19 14:44:00,78.0,52.0,-100.00,SW,218,6.0,-999.0,40,0.00,,,-99.99,,2013-10-19 21:44:00,
2013-10-19 14:54:00,78.0,52.0,-100.00,SW,218,6.0,-999.0,40,0.00,,,-99.99,,2013-10-19 21:54:00,
2013-10-19 15:00:00,76.0,51.0,-100.00,SW,222,10.0,-999.0,42,0.00,,,-99.99,,2013-10-19 22:00:00,
2013-10-19 15:43:00,76.0,51.0,-100.00,SW,222,10.0,-999.0,42,0.00,,,-99.99,,2013-10-19 22:43:00,
2013-10-19 15:53:00,76.0,51.0,-100.00,SW,222,10.0,-999.0,42,0.00,,,-99.99,,2013-10-19 22:53:00,
2013-10-19 16:00:00,77.0,52.0,-100.00,SW,231,5.0,-999.0,41,0.00,,,-99.99,,2013-10-19 23:00:00,
2013-10-19 16:42:00,77.0,52.0,-100.00,SW,231,5.0,-999.0,41,0.00,,,-99.99,,2013-10-19 23:42:00,
2013-10-19 16:52:00,77.0,52.0,-100.00,SW,231,5.0,-999.0,41,0.00,,,-99.99,,2013-10-19 23:52:00,
2013-10-19 17:00:00,76.0,51.0,-100.00,SSW,210,7.0,-999.0,41,0.00,,,-99.99,,2013-10-20 00:00:00,
2013-10-19 17:42:00,76.0,51.0,-100.00,SSW,210,7.0,-999.0,41,0.00,,,-99.99,,2013-10-20 00:42:00,
2013-10-19 17:52:00,76.0,51.0,-100.00,SSW,210,7.0,-999.0,41,0.00,,,-99.99,,2013-10-20 00:52:00,
2013-10-19 18:00:00,68.0,55.0,-100.00,South,181,5.0,-999.0,63,0.00,,,-99.99,,2013-10-20 01:00:00,
2013-10-19 18:42:00,68.0,55.0,-100.00,South,181,5.0,-999.0,63,0.00,,,-99.99,,2013-10-20 01:42:00,
2013-10-19 18:52:00,68.0,55.0,-100.00,South,181,5.0,-999.0,63,0.00,,,-99.99,,2013-10-20 01:52:00,
2013-10-19 19:00:00,63.0,56.0,-100.00,SSE,153,1.0,-999.0,76,0.00,,,-99.99,,2013-10-20 02:00:00,
2013-10-19 19:42:00,63.0,56.0,-100.00,SSE,153,1.0,-999.0,76,0.00,,,-99.99,,2013-10-20 02:42:00,
2013-10-19 19:52:00,63.0,56.0,-100.00,SSE,153,1.0,-999.0,76,0.00,,,-99.99,,2013-10-20 02:52:00,
2013-10-19 20:00:00,-999.0,-99.9,-100.00,ENE,66,0.0,-999.0,-999,-99.99,,,-99.99,,2013-10-20 03:00:00,
2013-10-19 20:44:00,59.0,54.0,-100.00,ENE,66,0.0,-999.0,81,0.00,,,-99.99,,2013-10-20 03:44:00,
2013-10-19 20:54:00,59.0,54.0,-100.00,ENE,66,0.0,-999.0,81,0.00,,,-99.99,,2013-10-20 03:54:00,
2013-10-19 21:00:00,56.0,52.0,-100.00,East,84,3.0,-999.0,85,0.00,,,-99.99,,2013-10-20 04:00:00,
2013-10-19 21:44:00,56.0,52.0,-100.00,East,84,3.0,-999.0,85,0.00,,,-99.99,,2013-10-20 04:44:00,
2013-10-19 21:54:00,56.0,52.0,-100.00,East,84,3.0,-999.0,85,0.00,,,-99.99,,2013-10-20 04:54:00,
2013-10-19 22:00:00,54.0,50.0,-100.00,NE,48,1.0,-999.0,85,0.00,,,-99.99,,2013-10-20 05:00:00,
2013-10-19 22:43:00,54.0,50.0,-100.00,NE,48,1.0,-999.0,85,0.00,,,-99.99,,2013-10-20 05:43:00,
2013-10-19 22:52:00,54.0,50.0,-100.00,NE,48,1.0,-999.0,85,0.00,,,-99.99,,2013-10-20 05:52:00,
2013-10-19 23:00:00,52.0,49.0,-100.00,ENE,63,2.0,-999.0,87,0.00,,,-99.99,,2013-10-20 06:00:00,
2013-10-19 23:42:00,52.0,49.0,-100.00,ENE,63,2.0,-999.0,87,0.00,,,-99.99,,2013-10-20 06:42:00,
2013-10-19 23:52:00,52.0,49.0,-100.00,ENE,63,2.0,-999.0,87,0.00,,,-99.99,,2013-10-20 06:52:00,